Airport View

Enter AWOS ICAO identifier for current METAR.

ex. KFNL

KLNL 080605Z AUTO 18005KT 10SM CLR 19/15 A3005 RMK AO2 T01920152

8 Aug 2020 06:06

Frequency: 119.525

Phone: 715-547-6313

Other Area AWOS: KEGV - KARV - KD25 - KRHI

TAF KRHI 080520Z 0806/0906 19007KT P6SM BKN040 FM080800 20007KT P6SM VCSH BKN008 TEMPO 0809/0812 -TSRA BKN005CB FM081400 21009G15KT P6SM BKN015 FM081700 23008G17KT P6SM BKN018 FM082200 25007G15KT P6SM BKN040 FM090000 22005KT P6SM SCT040